createdAt,value
2019-02-02T00:01:15.271Z,98871.23
2019-02-02T00:03:44.757Z,98872.09
2019-02-02T00:06:14.229Z,98869.38
2019-02-02T00:08:43.713Z,98879.14
2019-02-02T00:11:13.210Z,98876.88
2019-02-02T00:13:42.712Z,98873.28
2019-02-02T00:16:12.263Z,98874.83
2019-02-02T00:18:41.842Z,98876.55
2019-02-02T00:21:11.388Z,98872.27
2019-02-02T00:23:40.884Z,98871.00
2019-02-02T00:26:10.494Z,98865.70
2019-02-02T00:28:39.964Z,98861.48
2019-02-02T00:31:09.443Z,98864.21
2019-02-02T00:33:39.896Z,98859.94
2019-02-02T00:36:09.381Z,98857.06
2019-02-02T00:38:38.869Z,98857.11
2019-02-02T00:41:08.536Z,98851.63
2019-02-02T00:43:38.652Z,98857.47
2019-02-02T00:46:08.347Z,98844.01
2019-02-02T00:48:37.834Z,98843.65
2019-02-02T00:51:07.318Z,98848.89
2019-02-02T00:53:36.805Z,98855.98
2019-02-02T00:56:06.373Z,98861.17
2019-02-02T00:58:35.939Z,98868.52
2019-02-02T01:01:05.921Z,98877.17
2019-02-02T01:03:35.401Z,98885.02
2019-02-02T01:06:05.534Z,98887.98
2019-02-02T01:08:35.084Z,98891.55
2019-02-02T01:11:05.876Z,98889.67
2019-02-02T01:13:35.375Z,98889.01
2019-02-02T01:16:05.405Z,98888.33
2019-02-02T01:18:34.971Z,98897.27
2019-02-02T01:21:04.440Z,98893.27
2019-02-02T01:23:33.924Z,98884.91
2019-02-02T01:26:03.494Z,98878.42
2019-02-02T01:28:32.975Z,98875.38
2019-02-02T01:31:02.488Z,98872.81
2019-02-02T01:33:31.983Z,98878.18
2019-02-02T01:36:01.478Z,98874.77
2019-02-02T01:38:30.956Z,98876.99
2019-02-02T01:41:00.443Z,98876.00
2019-02-02T01:43:29.993Z,98872.27
2019-02-02T01:45:59.489Z,98871.76
2019-02-02T01:48:28.968Z,98869.65
2019-02-02T01:50:58.532Z,98873.78
2019-02-02T01:53:28.014Z,98870.14
2019-02-02T01:55:57.507Z,98865.69
2019-02-02T01:58:26.981Z,98857.42
2019-02-02T02:00:56.563Z,98853.53
2019-02-02T02:03:26.055Z,98856.13
2019-02-02T02:05:55.534Z,98858.22
2019-02-02T02:08:25.007Z,98854.45
2019-02-02T02:10:54.493Z,98857.71
2019-02-02T02:13:23.981Z,98849.02
2019-02-02T02:15:53.465Z,98847.81
2019-02-02T02:18:23.022Z,98843.44
2019-02-02T02:20:52.513Z,98846.53
2019-02-02T02:23:21.990Z,98853.27
2019-02-02T02:25:52.463Z,98860.06
2019-02-02T02:28:28.096Z,98855.41
2019-02-02T02:30:53.147Z,98858.70
2019-02-02T02:33:22.883Z,98858.19
2019-02-02T02:35:52.387Z,98847.43
2019-02-02T02:38:21.973Z,98840.44
2019-02-02T02:40:51.459Z,98846.02
2019-02-02T02:43:21.013Z,98838.23
2019-02-02T02:45:50.502Z,98839.38
2019-02-02T02:48:19.992Z,98832.89
2019-02-02T02:50:49.477Z,98835.02
2019-02-02T02:53:18.967Z,98830.78
2019-02-02T02:55:48.450Z,98836.31
2019-02-02T02:58:17.935Z,98841.14
2019-02-02T03:00:47.435Z,98841.20
2019-02-02T03:03:16.899Z,98837.36
2019-02-02T03:05:46.393Z,98832.39
2019-02-02T03:08:15.943Z,98838.38
2019-02-02T03:10:45.468Z,98833.64
2019-02-02T03:13:14.962Z,98835.21
2019-02-02T03:15:44.437Z,98834.34
2019-02-02T03:18:13.931Z,98834.97
2019-02-02T03:20:43.422Z,98834.58
2019-02-02T03:23:12.910Z,98829.00
2019-02-02T03:25:42.395Z,98835.75
2019-02-02T03:28:11.895Z,98838.56
2019-02-02T03:30:41.379Z,98839.97
2019-02-02T03:33:10.858Z,98835.96
2019-02-02T03:35:40.430Z,98842.08
2019-02-02T03:38:09.987Z,98844.91
2019-02-02T03:40:39.466Z,98856.67
2019-02-02T03:43:09.033Z,98854.72
2019-02-02T03:45:40.929Z,98859.13
2019-02-02T03:48:09.782Z,98862.43
2019-02-02T03:50:39.261Z,98863.17
2019-02-02T03:53:08.760Z,98862.82
2019-02-02T03:55:38.248Z,98863.90
2019-02-02T03:58:07.734Z,98863.34
2019-02-02T04:00:37.255Z,98871.29
2019-02-02T04:03:06.749Z,98872.41
2019-02-02T04:05:36.244Z,98876.66
2019-02-02T04:08:05.751Z,98885.33
2019-02-02T04:10:35.247Z,98894.59
2019-02-02T04:13:04.737Z,98886.86
2019-02-02T04:15:34.214Z,98883.66
2019-02-02T04:18:03.702Z,98884.73
2019-02-02T04:20:33.189Z,98891.81
2019-02-02T04:23:02.691Z,98897.66
2019-02-02T04:25:32.179Z,98890.73
2019-02-02T04:28:01.674Z,98900.67
2019-02-02T04:30:31.253Z,98905.35
2019-02-02T04:33:00.733Z,98902.84
2019-02-02T04:35:30.223Z,98907.20
2019-02-02T04:37:59.753Z,98905.66
2019-02-02T04:40:32.656Z,98906.47
2019-02-02T04:43:01.913Z,98904.80
2019-02-02T04:45:31.603Z,98912.91
2019-02-02T04:48:01.089Z,98908.57
2019-02-02T04:50:30.599Z,98910.91
2019-02-02T04:53:00.103Z,98903.89
2019-02-02T04:55:29.682Z,98914.41
2019-02-02T04:57:59.218Z,98907.30
2019-02-02T05:00:28.870Z,98910.33
2019-02-02T05:02:58.347Z,98909.91
2019-02-02T05:05:27.840Z,98916.23
2019-02-02T05:07:57.325Z,98915.21
2019-02-02T05:10:26.823Z,98913.20
2019-02-02T05:12:56.302Z,98915.59
2019-02-02T05:15:25.785Z,98904.85
2019-02-02T05:17:55.286Z,98908.52
2019-02-02T05:20:24.784Z,98917.59
2019-02-02T05:22:54.268Z,98920.02
2019-02-02T05:25:23.761Z,98924.95
2019-02-02T05:27:53.250Z,98922.30
2019-02-02T05:30:27.714Z,98926.16
2019-02-02T05:32:57.218Z,98916.78
2019-02-02T05:35:26.700Z,98926.43
2019-02-02T05:37:56.264Z,98927.00
2019-02-02T05:40:25.768Z,98932.20
2019-02-02T05:42:55.248Z,98934.24
2019-02-02T05:45:25.012Z,98937.01
2019-02-02T05:47:54.497Z,98946.58
2019-02-02T05:50:24.078Z,98949.54
2019-02-02T05:52:53.553Z,98960.57
2019-02-02T05:55:23.450Z,98966.78
2019-02-02T05:57:52.949Z,98971.20
2019-02-02T06:00:30.648Z,98977.11
2019-02-02T06:03:00.200Z,98979.73
2019-02-02T06:05:29.696Z,98981.18
2019-02-02T06:08:00.154Z,98976.49
2019-02-02T06:10:30.730Z,98980.19
2019-02-02T06:13:00.225Z,98973.74
2019-02-02T06:15:29.807Z,98968.19
2019-02-02T06:17:59.293Z,98968.03
2019-02-02T06:20:28.780Z,98971.11
2019-02-02T06:22:58.255Z,98965.65
2019-02-02T06:25:27.747Z,98963.00
2019-02-02T06:27:57.226Z,98964.84
2019-02-02T06:30:26.790Z,98966.55
2019-02-02T06:32:56.279Z,98974.33
2019-02-02T06:35:25.854Z,98990.09
2019-02-02T06:37:55.340Z,98996.72
2019-02-02T06:40:24.833Z,98996.07
2019-02-02T06:42:54.312Z,98995.22
2019-02-02T06:45:26.594Z,99003.82
2019-02-02T06:47:56.287Z,99009.24
2019-02-02T06:50:25.793Z,99007.58
2019-02-02T06:52:55.352Z,99005.65
2019-02-02T06:55:24.835Z,99002.35
2019-02-02T06:57:54.419Z,99016.92
2019-02-02T07:00:26.548Z,99012.19
2019-02-02T07:02:56.760Z,99023.11
2019-02-02T07:05:26.258Z,99009.14
2019-02-02T07:07:55.736Z,99015.98
2019-02-02T07:10:26.240Z,99023.08
2019-02-02T07:12:55.735Z,99028.38
2019-02-02T07:15:27.108Z,99036.54
2019-02-02T07:17:56.593Z,99041.80
2019-02-02T07:20:27.188Z,99048.13
2019-02-02T07:22:56.686Z,99053.69
2019-02-02T07:25:26.171Z,99057.86
2019-02-02T07:27:55.672Z,99066.16
2019-02-02T07:30:29.699Z,99069.80
2019-02-02T07:32:56.366Z,99070.84
2019-02-02T07:35:25.865Z,99082.12
2019-02-02T07:37:55.366Z,99094.81
2019-02-02T07:40:24.859Z,99095.56
2019-02-02T07:42:54.434Z,99095.28
2019-02-02T07:45:29.253Z,99094.86
2019-02-02T07:47:58.770Z,99077.70
2019-02-02T07:50:28.356Z,99073.53
2019-02-02T07:52:58.038Z,99069.80
2019-02-02T07:55:27.547Z,99062.72
2019-02-02T07:57:57.049Z,99068.36
2019-02-02T08:00:39.774Z,99074.00
2019-02-02T08:03:01.224Z,99080.34
2019-02-02T08:05:30.807Z,99092.36
2019-02-02T08:08:00.406Z,99085.83
2019-02-02T08:10:30.083Z,99074.05
2019-02-02T08:12:59.590Z,99061.98
2019-02-02T08:15:30.792Z,99069.14
2019-02-02T08:18:00.316Z,99076.67
2019-02-02T08:20:30.803Z,99083.94
2019-02-02T08:23:00.302Z,99092.36
2019-02-02T08:25:29.791Z,99106.82
2019-02-02T08:27:59.286Z,99119.19
2019-02-02T08:30:31.213Z,99109.79
2019-02-02T08:33:00.786Z,99114.18
2019-02-02T08:35:30.278Z,99114.23
2019-02-02T08:37:59.790Z,99121.92
2019-02-02T08:40:31.826Z,99128.91
2019-02-02T08:43:00.465Z,99136.17
2019-02-02T08:45:29.972Z,99137.31
2019-02-02T08:47:59.488Z,99149.56
2019-02-02T08:50:32.524Z,99154.20
2019-02-02T08:53:02.093Z,99156.13
2019-02-02T08:55:31.624Z,99155.22
2019-02-02T08:58:01.113Z,99163.34
2019-02-02T09:00:32.157Z,99165.98
2019-02-02T09:03:01.678Z,99170.12
2019-02-02T09:05:31.259Z,99177.44
2019-02-02T09:08:00.737Z,99181.31
2019-02-02T09:10:30.231Z,99181.73
2019-02-02T09:12:59.745Z,99178.98
2019-02-02T09:15:29.319Z,99170.73
2019-02-02T09:17:58.820Z,99182.35
2019-02-02T09:20:28.325Z,99173.25
2019-02-02T09:23:05.904Z,99177.25
2019-02-02T09:25:29.253Z,99182.70
2019-02-02T09:27:58.845Z,99185.91
2019-02-02T09:30:31.986Z,99194.20
2019-02-02T09:33:01.559Z,99194.36
2019-02-02T09:35:31.056Z,99189.54
2019-02-02T09:38:00.813Z,99197.05
2019-02-02T09:40:30.378Z,99204.56
2019-02-02T09:42:59.875Z,99210.22
2019-02-02T09:45:29.363Z,99214.92
2019-02-02T09:47:58.858Z,99216.69
2019-02-02T09:50:31.287Z,99214.05
2019-02-02T09:53:01.133Z,99144.94
2019-02-02T09:55:30.638Z,99210.80
2019-02-02T09:58:03.049Z,99208.23
2019-02-02T10:00:32.984Z,99209.83
2019-02-02T10:03:02.467Z,99213.72
2019-02-02T10:05:32.279Z,99217.20
2019-02-02T10:08:01.780Z,99220.92
2019-02-02T10:10:33.017Z,99228.36
2019-02-02T10:13:02.684Z,99222.59
2019-02-02T10:15:32.168Z,99225.45
2019-02-02T10:18:01.728Z,99232.53
2019-02-02T10:20:32.660Z,99226.29
2019-02-02T10:23:02.375Z,99233.52
2019-02-02T10:25:31.925Z,99234.03
2019-02-02T10:28:02.186Z,99228.42
2019-02-02T10:30:42.602Z,99228.77
2019-02-02T10:33:13.097Z,99230.33
2019-02-02T10:35:42.610Z,99230.16
2019-02-02T10:38:12.120Z,99239.37
2019-02-02T10:40:41.809Z,99250.53
2019-02-02T10:43:11.406Z,99251.84
2019-02-02T10:45:40.868Z,99248.34
2019-02-02T10:48:10.438Z,99257.45
2019-02-02T10:50:40.026Z,99269.94
2019-02-02T10:53:09.527Z,99254.97
2019-02-02T10:55:39.122Z,99246.96
2019-02-02T10:58:08.684Z,99246.86
2019-02-02T11:00:39.623Z,99249.60
2019-02-02T11:03:09.202Z,99243.45
2019-02-02T11:05:38.911Z,99253.09
2019-02-02T11:08:11.762Z,99254.06
2019-02-02T11:10:42.942Z,99258.55
2019-02-02T11:13:12.874Z,99257.40
2019-02-02T11:15:42.750Z,99254.77
2019-02-02T11:18:12.560Z,99252.14
2019-02-02T11:20:42.184Z,99248.75
2019-02-02T11:23:11.657Z,99241.92
2019-02-02T11:25:41.296Z,99248.44
2019-02-02T11:28:10.797Z,99254.79
2019-02-02T11:30:40.479Z,99260.38
2019-02-02T11:33:09.897Z,99265.02
2019-02-02T11:35:39.373Z,99265.58
2019-02-02T11:38:09.594Z,99263.92
2019-02-02T11:40:39.111Z,99266.85
2019-02-02T11:43:08.614Z,99270.28
2019-02-02T11:45:39.114Z,99277.78
2019-02-02T11:48:08.733Z,99275.89
2019-02-02T11:50:38.184Z,99278.63
2019-02-02T11:53:07.684Z,99283.00
2019-02-02T11:55:37.234Z,99275.27
2019-02-02T11:58:06.823Z,99283.12
2019-02-02T12:00:38.704Z,99292.04
2019-02-02T12:03:08.290Z,99293.53
2019-02-02T12:05:37.852Z,99294.34
2019-02-02T12:08:07.630Z,99295.39
2019-02-02T12:10:37.231Z,99296.89
2019-02-02T12:13:06.745Z,99301.77
2019-02-02T12:15:36.261Z,99307.34
2019-02-02T12:18:07.410Z,99308.53
2019-02-02T12:20:36.895Z,99311.21
2019-02-02T12:23:06.462Z,99301.64
2019-02-02T12:25:35.963Z,99302.95
2019-02-02T12:28:09.382Z,99301.22
2019-02-02T12:30:39.037Z,99298.48
2019-02-02T12:33:08.566Z,99305.22
2019-02-02T12:35:38.133Z,99313.80
2019-02-02T12:38:07.706Z,99306.72
2019-02-02T12:40:37.327Z,99315.66
2019-02-02T12:43:06.861Z,99314.39
2019-02-02T12:45:42.280Z,99326.72
2019-02-02T12:48:11.882Z,99319.84
2019-02-02T12:50:41.499Z,99318.34
2019-02-02T12:53:12.089Z,99320.77
2019-02-02T12:55:41.643Z,99321.98
2019-02-02T12:58:11.136Z,99325.55
2019-02-02T13:00:44.029Z,99336.16
2019-02-02T13:03:13.206Z,99341.77
2019-02-02T13:05:42.726Z,99351.97
2019-02-02T13:08:12.254Z,99349.12
2019-02-02T13:10:41.933Z,99352.22
2019-02-02T13:13:11.561Z,99351.27
2019-02-02T13:15:41.144Z,99355.01
2019-02-02T13:18:10.717Z,99357.98
2019-02-02T13:20:40.205Z,99372.20
2019-02-02T13:23:11.649Z,99378.80
2019-02-02T13:25:41.210Z,99382.64
2019-02-02T13:28:12.663Z,99375.75
2019-02-02T13:30:42.238Z,99381.14
2019-02-02T13:33:11.743Z,99383.31
2019-02-02T13:35:43.238Z,99382.14
2019-02-02T13:38:12.824Z,99389.66
2019-02-02T13:40:42.403Z,99393.05
2019-02-02T13:43:11.893Z,99398.98
2019-02-02T13:45:41.387Z,99401.71
2019-02-02T13:48:10.896Z,99404.45
2019-02-02T13:50:40.437Z,99404.02
2019-02-02T13:53:10.288Z,99402.20
2019-02-02T13:55:40.147Z,99414.41
2019-02-02T13:58:09.660Z,99423.91
2019-02-02T14:00:39.179Z,99434.28
2019-02-02T14:03:08.685Z,99430.91
2019-02-02T14:05:39.096Z,99426.16
2019-02-02T14:08:08.641Z,99429.98
2019-02-02T14:10:38.211Z,99427.05
2019-02-02T14:13:07.707Z,99430.59
2019-02-02T14:15:39.256Z,99433.94
2019-02-02T14:18:08.472Z,99437.39
2019-02-02T14:20:37.975Z,99439.52
2019-02-02T14:23:07.533Z,99449.37
2019-02-02T14:25:37.037Z,99449.64
2019-02-02T14:28:06.690Z,99449.73
2019-02-02T14:30:36.268Z,99451.77
2019-02-02T14:33:13.863Z,99458.98
2019-02-02T14:35:36.975Z,99456.61
2019-02-02T14:38:06.473Z,99469.64
2019-02-02T14:40:35.994Z,99473.69
2019-02-02T14:43:06.447Z,99479.91
2019-02-02T14:45:36.053Z,99480.25
2019-02-02T14:48:05.647Z,99490.19
2019-02-02T14:50:35.170Z,99486.80
2019-02-02T14:53:05.014Z,99485.93
2019-02-02T14:55:34.515Z,99488.45
2019-02-02T14:58:04.366Z,99491.95
2019-02-02T15:00:33.940Z,99503.02
2019-02-02T15:03:03.780Z,99505.16
2019-02-02T15:05:42.513Z,99503.67
2019-02-02T15:08:04.703Z,99504.64
2019-02-02T15:10:34.172Z,99502.62
2019-02-02T15:13:03.664Z,99507.44
2019-02-02T15:15:33.172Z,99511.70
2019-02-02T15:18:02.673Z,99519.16
2019-02-02T15:20:36.714Z,99513.70
2019-02-02T15:23:06.962Z,99527.66
2019-02-02T15:25:36.499Z,99523.28
2019-02-02T15:28:06.035Z,99530.02
2019-02-02T15:30:36.032Z,99535.69
2019-02-02T15:33:06.058Z,99539.92
2019-02-02T15:35:35.557Z,99544.17
2019-02-02T15:38:06.072Z,99551.81
2019-02-02T15:40:36.534Z,99551.23
2019-02-02T15:43:06.095Z,99555.59
2019-02-02T15:45:35.734Z,99561.50
2019-02-02T15:48:05.552Z,99563.22
2019-02-02T15:50:35.101Z,99571.53
2019-02-02T15:53:04.740Z,99576.20
2019-02-02T15:55:34.286Z,99576.30
2019-02-02T15:58:03.979Z,99584.91
2019-02-02T16:00:35.425Z,99592.30
2019-02-02T16:03:06.767Z,99597.48
2019-02-02T16:05:37.103Z,99608.55
2019-02-02T16:08:09.680Z,99607.69
2019-02-02T16:10:39.354Z,99610.68
2019-02-02T16:13:08.924Z,99616.69
2019-02-02T16:15:38.438Z,99627.67
2019-02-02T16:18:08.126Z,99632.42
2019-02-02T16:20:42.091Z,99642.02
2019-02-02T16:23:12.199Z,99637.42
2019-02-02T16:25:41.758Z,99636.22
2019-02-02T16:28:11.330Z,99634.89
2019-02-02T16:30:40.891Z,99639.55
2019-02-02T16:33:10.479Z,99637.31
2019-02-02T16:35:40.026Z,99642.56
2019-02-02T16:38:09.700Z,99647.55
2019-02-02T16:40:39.427Z,99643.80
2019-02-02T16:43:09.012Z,99651.29
2019-02-02T16:45:38.590Z,99664.03
2019-02-02T16:48:08.197Z,99673.73
2019-02-02T16:50:37.698Z,99679.58
2019-02-02T16:53:07.272Z,99684.42
2019-02-02T16:55:36.788Z,99691.35
2019-02-02T16:58:06.372Z,99699.81
2019-02-02T17:00:35.947Z,99707.14
2019-02-02T17:03:05.513Z,99715.53
2019-02-02T17:05:35.153Z,99722.88
2019-02-02T17:08:04.872Z,99728.46
2019-02-02T17:10:36.107Z,99732.77
2019-02-02T17:13:07.060Z,99737.94
2019-02-02T17:15:36.625Z,99756.68
2019-02-02T17:18:06.898Z,99765.73
2019-02-02T17:20:38.477Z,99765.33
2019-02-02T17:23:08.358Z,99771.89
2019-02-02T17:25:38.003Z,99782.53
2019-02-02T17:28:08.154Z,99776.27
2019-02-02T17:30:37.844Z,99782.70
2019-02-02T17:33:09.770Z,99785.16
2019-02-02T17:35:39.254Z,99785.67
2019-02-02T17:38:08.752Z,99793.70
2019-02-02T17:40:38.277Z,99798.93
2019-02-02T17:43:07.781Z,99805.83
2019-02-02T17:45:37.294Z,99821.52
2019-02-02T17:48:08.092Z,99829.30
2019-02-02T17:50:37.649Z,99830.61
2019-02-02T17:53:07.332Z,99827.21
2019-02-02T17:55:36.842Z,99823.42
2019-02-02T17:58:08.319Z,99829.19
2019-02-02T18:00:59.382Z,99806.58
2019-02-02T18:03:28.954Z,99820.63
2019-02-02T18:05:59.407Z,99824.20
2019-02-02T18:08:28.989Z,99824.36
2019-02-02T18:10:58.555Z,99829.72
2019-02-02T18:13:28.067Z,99838.46
2019-02-02T18:15:57.578Z,99846.14
2019-02-02T18:18:28.224Z,99854.27
2019-02-02T18:20:59.564Z,99854.27
2019-02-02T18:23:29.057Z,99790.68
2019-02-02T18:25:58.574Z,99862.42
2019-02-02T18:28:28.169Z,99860.41
2019-02-02T18:30:57.669Z,99861.00
2019-02-02T18:33:27.195Z,99865.35
2019-02-02T18:35:57.714Z,99870.81
2019-02-02T18:38:27.230Z,99870.39
2019-02-02T18:40:56.735Z,99871.34
2019-02-02T18:43:26.287Z,99873.42
2019-02-02T18:45:55.847Z,99875.95
2019-02-02T18:48:25.342Z,99875.95
2019-02-02T18:50:54.950Z,99877.09
2019-02-02T18:53:24.466Z,99881.50
2019-02-02T18:56:19.639Z,99886.34
2019-02-02T18:58:49.141Z,99883.58
2019-02-02T19:01:18.634Z,99886.29
2019-02-02T19:03:48.152Z,99891.48
2019-02-02T19:06:17.783Z,99894.25
2019-02-02T19:08:47.301Z,99894.14
2019-02-02T19:11:16.812Z,99897.85
2019-02-02T19:13:46.468Z,99900.19
2019-02-02T19:16:16.072Z,99910.75
2019-02-02T19:18:45.886Z,99907.03
2019-02-02T19:21:15.463Z,99917.47
2019-02-02T19:23:45.016Z,99927.19
2019-02-02T19:26:14.587Z,99919.34
2019-02-02T19:28:44.117Z,99921.59
2019-02-02T19:31:13.629Z,99921.11
2019-02-02T19:33:43.155Z,99921.98
2019-02-02T19:36:12.680Z,99931.77
2019-02-02T19:38:42.189Z,99945.42
2019-02-02T19:41:11.724Z,99940.06
2019-02-02T19:43:41.674Z,99943.30
2019-02-02T19:46:11.254Z,99922.66
2019-02-02T19:48:40.762Z,99964.23
2019-02-02T19:51:10.327Z,99971.91
2019-02-02T19:53:39.901Z,99970.31
2019-02-02T19:56:09.438Z,99975.87
2019-02-02T19:58:38.939Z,99977.30
2019-02-02T20:01:08.464Z,99980.11
2019-02-02T20:03:38.040Z,99989.56
2019-02-02T20:06:07.623Z,99996.72
2019-02-02T20:08:37.131Z,99997.18
2019-02-02T20:11:07.297Z,99994.04
2019-02-02T20:13:36.880Z,99986.16
2019-02-02T20:16:06.459Z,100002.34
2019-02-02T20:18:35.973Z,100005.88
2019-02-02T20:21:05.585Z,100020.45
2019-02-02T20:23:38.421Z,100024.94
2019-02-02T20:26:06.573Z,100024.70
2019-02-02T20:28:36.161Z,100026.92
2019-02-02T20:31:05.762Z,100023.84
2019-02-02T20:33:35.276Z,100036.05
2019-02-02T20:36:05.316Z,100028.95
2019-02-02T20:38:34.891Z,100039.30
2019-02-02T20:41:04.807Z,100042.98
2019-02-02T20:43:34.316Z,100043.72
2019-02-02T20:46:03.838Z,100048.64
2019-02-02T20:48:36.515Z,100047.78
2019-02-02T20:51:06.122Z,100057.00
2019-02-02T20:53:35.742Z,100059.72
2019-02-02T20:56:05.670Z,100069.11
2019-02-02T20:58:35.240Z,100070.04
2019-02-02T21:01:05.965Z,100068.95
2019-02-02T21:03:35.584Z,100081.50
2019-02-02T21:06:05.225Z,100092.45
2019-02-02T21:08:34.733Z,100096.17
2019-02-02T21:11:04.408Z,100096.93
2019-02-02T21:13:33.944Z,100111.48
2019-02-02T21:16:04.640Z,100114.81
2019-02-02T21:18:34.152Z,100096.98
2019-02-02T21:21:04.475Z,100129.19
2019-02-02T21:23:33.992Z,100136.47
2019-02-02T21:26:03.534Z,100130.89
2019-02-02T21:28:33.325Z,100136.53
2019-02-02T21:31:03.222Z,100139.63
2019-02-02T21:33:32.833Z,100149.73
2019-02-02T21:36:03.987Z,100151.52
2019-02-02T21:38:33.630Z,100161.05
2019-02-02T21:41:03.881Z,100163.39
2019-02-02T21:43:33.388Z,100169.34
2019-02-02T21:46:02.917Z,100177.06
2019-02-02T21:48:35.958Z,100182.29
2019-02-02T21:51:05.432Z,100142.05
2019-02-02T21:53:35.234Z,100195.64
2019-02-02T21:56:05.141Z,100198.97
2019-02-02T21:58:34.744Z,100208.42
2019-02-02T22:01:04.429Z,100211.42
2019-02-02T22:03:34.176Z,100220.95
2019-02-02T22:06:14.822Z,100227.34
2019-02-02T22:08:34.913Z,100229.56
2019-02-02T22:11:04.578Z,100239.37
2019-02-02T22:13:34.097Z,100249.31
2019-02-02T22:16:03.641Z,100262.23
2019-02-02T22:18:33.236Z,100270.09
2019-02-02T22:21:02.874Z,100271.48
2019-02-02T22:23:32.426Z,100273.88
2019-02-02T22:26:01.960Z,100272.74
2019-02-02T22:28:31.481Z,100271.02
2019-02-02T22:31:00.995Z,100278.98
2019-02-02T22:33:30.608Z,100282.70
2019-02-02T22:36:00.118Z,100291.95
2019-02-02T22:38:30.468Z,100292.78
2019-02-02T22:40:59.975Z,100296.34
2019-02-02T22:43:29.563Z,100311.08
2019-02-02T22:45:59.359Z,100312.64
2019-02-02T22:48:28.956Z,100314.77
2019-02-02T22:50:58.546Z,100315.50
2019-02-02T22:53:28.164Z,100315.72
2019-02-02T22:55:57.670Z,100323.03
2019-02-02T22:58:27.588Z,100329.41
2019-02-02T23:01:25.429Z,100332.98
2019-02-02T23:04:46.628Z,100339.05
2019-02-02T23:07:33.165Z,100341.93
2019-02-02T23:10:34.607Z,100348.59
2019-02-02T23:13:15.372Z,100349.31
2019-02-02T23:16:02.827Z,100361.07
2019-02-02T23:18:32.350Z,100364.25
2019-02-02T23:21:01.921Z,100373.48
2019-02-02T23:23:31.463Z,100376.06
2019-02-02T23:26:04.153Z,100387.00
2019-02-02T23:28:33.729Z,100381.03
2019-02-02T23:31:03.234Z,100401.92
2019-02-02T23:33:32.767Z,100404.52
2019-02-02T23:36:02.324Z,100411.20
2019-02-02T23:38:31.868Z,100414.56
2019-02-02T23:41:01.379Z,100423.10
2019-02-02T23:43:30.874Z,100426.08
2019-02-02T23:46:00.508Z,100425.73
2019-02-02T23:48:30.478Z,100425.75
2019-02-02T23:51:00.108Z,100426.36
2019-02-02T23:53:29.632Z,100433.72
2019-02-02T23:55:59.160Z,100428.67
2019-02-02T23:58:29.316Z,100424.48
